Time;durP1;ratioP1;P1;durP2;ratioP2;P2;SDS_P1;SDS_P2;PMS_P1;PMS_P2;Temp;Humidity;BMP_temperature;BMP_pressure;BME280_temperature;BME280_humidity;BME280_pressure;Samples;Min_cycle;Max_cycle;Signal;HPM_P1;HPM_P2
2021/12/13 00:00:50;;;;;;;112.93;28.80;;;8.60;99.90;;;;;;5041635;28;20428;-49
2021/12/13 00:03:54;;;;;;;129.13;29.83;;;8.60;99.90;;;;;;5036414;28;20499;-49
2021/12/13 00:06:29;;;;;;;108.77;27.37;;;8.60;99.90;;;;;;5034882;28;20951;-49
2021/12/13 00:08:58;;;;;;;96.13;28.17;;;8.70;99.90;;;;;;5040001;28;20444;-49
2021/12/13 00:11:31;;;;;;;87.80;26.93;;;8.60;99.90;;;;;;5042026;28;20516;-49
2021/12/13 00:14:17;;;;;;;81.90;24.73;;;8.70;99.90;;;;;;5045852;28;20443;-49
2021/12/13 00:16:47;;;;;;;87.67;24.70;;;8.70;99.90;;;;;;5048128;28;20792;-49
2021/12/13 00:19:17;;;;;;;66.37;22.67;;;8.70;99.90;;;;;;5041072;28;20475;-49
2021/12/13 00:21:48;;;;;;;69.27;23.63;;;8.60;99.90;;;;;;5042084;28;20436;-49
2021/12/13 00:24:22;;;;;;;56.33;21.53;;;8.70;99.90;;;;;;5041307;28;20913;-50
2021/12/13 00:26:50;;;;;;;57.17;20.90;;;8.70;99.90;;;;;;5047276;28;20445;-49
2021/12/13 00:29:23;;;;;;;61.13;21.97;;;8.70;99.90;;;;;;5048481;28;21017;-49
2021/12/13 00:32:10;;;;;;;57.90;20.40;;;8.70;99.90;;;;;;5044166;28;20467;-50
2021/12/13 00:34:45;;;;;;;59.83;19.83;;;8.70;99.90;;;;;;5045257;28;20963;-49
2021/12/13 00:37:24;;;;;;;49.40;19.00;;;8.70;99.90;;;;;;5045795;28;20440;-49
2021/12/13 00:39:58;;;;;;;55.53;19.53;;;8.70;99.90;;;;;;5043407;28;20441;-49
2021/12/13 00:42:29;;;;;;;59.73;22.07;;;8.70;99.90;;;;;;5046097;28;20440;-49
2021/12/13 00:45:03;;;;;;;59.63;21.00;;;8.70;99.90;;;;;;5050610;28;20444;-50
2021/12/13 00:47:31;;;;;;;61.03;20.63;;;8.70;99.90;;;;;;5045647;28;20484;-49
2021/12/13 00:50:22;;;;;;;58.77;21.40;;;8.70;99.90;;;;;;5046062;28;20448;-50
2021/12/13 00:52:49;;;;;;;53.97;21.70;;;8.70;99.90;;;;;;5039298;28;20473;-50
2021/12/13 00:55:20;;;;;;;60.43;20.57;;;8.70;99.90;;;;;;5046150;28;20793;-49
2021/12/13 00:57:49;;;;;;;58.73;20.07;;;8.70;99.90;;;;;;5052069;28;20486;-49
2021/12/13 01:00:17;;;;;;;60.77;20.93;;;8.70;99.90;;;;;;5046940;28;20843;-49
2021/12/13 01:02:54;;;;;;;61.80;20.70;;;8.70;99.90;;;;;;5043015;28;20486;-49
2021/12/13 01:05:30;;;;;;;53.53;19.47;;;8.70;99.90;;;;;;5046123;28;20463;-50
2021/12/13 01:08:32;;;;;;;45.77;17.47;;;8.80;99.90;;;;;;5051008;28;20444;-50
2021/12/13 01:11:32;;;;;;;47.03;18.30;;;8.80;99.90;;;;;;5046213;28;20513;-50
2021/12/13 01:14:16;;;;;;;55.37;18.10;;;8.80;99.90;;;;;;5042477;28;20449;-49
2021/12/13 01:16:57;;;;;;;45.20;16.73;;;8.80;99.90;;;;;;5042074;28;20430;-49
2021/12/13 01:19:54;;;;;;;47.30;16.80;;;8.80;99.90;;;;;;5042394;28;20915;-49
2021/12/13 01:22:44;;;;;;;48.30;17.83;;;8.80;99.90;;;;;;5042145;28;20461;-50
2021/12/13 01:25:24;;;;;;;51.63;16.97;;;8.80;99.90;;;;;;5040819;28;20417;-50
2021/12/13 01:28:04;;;;;;;40.07;14.73;;;8.80;99.90;;;;;;5043822;28;20903;-49
2021/12/13 01:30:42;;;;;;;40.57;14.10;;;8.80;99.90;;;;;;5041901;28;20915;-49
2021/12/13 01:33:11;;;;;;;38.63;14.93;;;8.80;99.90;;;;;;5042968;28;20476;-49
2021/12/13 01:35:41;;;;;;;46.10;16.57;;;8.80;99.90;;;;;;5041899;28;20857;-49
2021/12/13 01:38:10;;;;;;;44.00;16.07;;;8.80;99.90;;;;;;5046548;28;20444;-50
2021/12/13 01:40:38;;;;;;;38.50;14.13;;;8.90;99.90;;;;;;5041140;28;20816;-49
2021/12/13 01:43:18;;;;;;;37.53;14.07;;;8.80;99.90;;;;;;5052488;28;20763;-49
2021/12/13 01:45:48;;;;;;;46.33;15.50;;;8.80;99.90;;;;;;5050737;28;20440;-50
2021/12/13 01:48:29;;;;;;;41.87;15.47;;;8.90;99.90;;;;;;5042485;28;21179;-49
2021/12/13 01:51:05;;;;;;;39.90;15.30;;;8.90;99.90;;;;;;5040678;28;20436;-50
2021/12/13 01:53:50;;;;;;;47.30;15.00;;;9.00;99.90;;;;;;5037945;28;20466;-50
2021/12/13 01:56:38;;;;;;;44.37;14.83;;;9.00;99.90;;;;;;5044008;28;20429;-49
2021/12/13 01:59:28;;;;;;;33.87;13.83;;;9.00;99.90;;;;;;5043649;28;20444;-57
2021/12/13 02:01:57;;;;;;;35.57;13.90;;;9.00;99.90;;;;;;5041761;28;20436;-49
2021/12/13 02:04:24;;;;;;;35.90;14.07;;;9.00;99.90;;;;;;5051591;28;20440;-49
2021/12/13 02:06:55;;;;;;;40.03;14.60;;;9.00;99.90;;;;;;5052343;28;20599;-49
2021/12/13 02:09:25;;;;;;;35.57;13.17;;;9.00;99.90;;;;;;5050695;28;20424;-50
2021/12/13 02:11:55;;;;;;;39.80;13.70;;;9.00;99.90;;;;;;5050086;28;20470;-50
2021/12/13 02:14:29;;;;;;;37.30;14.23;;;9.00;99.90;;;;;;5054331;28;20445;-50
2021/12/13 02:17:08;;;;;;;38.50;12.50;;;9.10;99.90;;;;;;5047038;28;20567;-50
2021/12/13 02:19:39;;;;;;;39.77;14.27;;;9.10;99.90;;;;;;5047109;28;20511;-49
2021/12/13 02:22:22;;;;;;;32.43;12.40;;;9.00;99.90;;;;;;5052457;28;20452;-49
2021/12/13 02:24:50;;;;;;;36.57;11.90;;;9.00;99.90;;;;;;5052204;28;20866;-50
2021/12/13 02:27:21;;;;;;;35.63;12.97;;;9.00;99.90;;;;;;5047404;28;20446;-49
2021/12/13 02:29:48;;;;;;;35.37;12.97;;;9.10;99.90;;;;;;5051318;28;20436;-49
2021/12/13 02:32:14;;;;;;;28.30;11.30;;;9.10;99.90;;;;;;5051517;28;20970;-50
2021/12/13 02:34:42;;;;;;;29.40;10.23;;;9.10;99.90;;;;;;5052304;28;20509;-50
2021/12/13 02:37:09;;;;;;;26.83;9.33;;;9.20;99.90;;;;;;5047250;28;20504;-49
2021/12/13 02:39:40;;;;;;;28.83;11.53;;;9.20;99.90;;;;;;5064037;28;21013;-50
2021/12/13 02:42:09;;;;;;;24.43;8.57;;;9.20;99.90;;;;;;5051098;28;20428;-50
2021/12/13 02:44:39;;;;;;;21.30;9.00;;;9.20;99.90;;;;;;5046918;28;20529;-49
2021/12/13 02:47:14;;;;;;;22.10;8.13;;;9.20;99.90;;;;;;5050717;28;21303;-50
2021/12/13 02:49:40;;;;;;;23.70;8.00;;;9.20;99.90;;;;;;5053140;28;21085;-50
2021/12/13 02:52:09;;;;;;;25.50;8.20;;;9.20;99.90;;;;;;5049183;28;20472;-54
2021/12/13 02:54:38;;;;;;;21.70;8.90;;;9.30;99.90;;;;;;5051823;28;20670;-50
2021/12/13 02:57:22;;;;;;;25.07;9.33;;;9.30;99.90;;;;;;5051261;28;20437;-50
2021/12/13 02:59:55;;;;;;;30.37;10.03;;;9.40;99.90;;;;;;5047292;28;20445;-49
2021/12/13 03:02:29;;;;;;;31.83;9.77;;;9.40;99.90;;;;;;5047127;28;20452;-50
2021/12/13 03:04:56;;;;;;;37.03;11.27;;;9.40;99.90;;;;;;5045151;28;20441;-49
2021/12/13 03:07:27;;;;;;;33.33;11.77;;;9.40;99.90;;;;;;5047369;28;20452;-49
2021/12/13 03:09:54;;;;;;;35.10;11.43;;;9.40;99.90;;;;;;5049528;28;20486;-49
2021/12/13 03:12:23;;;;;;;33.20;11.03;;;9.40;99.90;;;;;;5051372;28;20470;-49
2021/12/13 03:14:56;;;;;;;30.43;10.87;;;9.40;99.90;;;;;;5051976;28;20437;-50
2021/12/13 03:17:27;;;;;;;29.70;10.37;;;9.50;99.90;;;;;;5046865;28;21005;-50
2021/12/13 03:20:33;;;;;;;31.50;10.70;;;9.50;99.90;;;;;;5047702;28;20449;-50
2021/12/13 03:23:13;;;;;;;28.73;11.10;;;9.50;99.90;;;;;;5049330;28;20463;-50
2021/12/13 03:26:07;;;;;;;29.37;9.57;;;9.50;99.90;;;;;;5049794;28;20441;-50
2021/12/13 03:28:58;;;;;;;25.53;9.73;;;9.50;99.90;;;;;;5051271;28;20460;-49
2021/12/13 03:31:27;;;;;;;29.10;9.90;;;9.60;99.90;;;;;;5051567;28;20444;-49
2021/12/13 03:33:59;;;;;;;31.43;9.57;;;9.60;99.90;;;;;;5050516;28;20829;-49
2021/12/13 03:36:42;;;;;;;25.60;8.90;;;9.60;99.90;;;;;;5050056;28;20563;-50
2021/12/13 03:39:10;;;;;;;27.70;9.40;;;9.50;99.90;;;;;;5052394;28;20517;-49
2021/12/13 03:41:40;;;;;;;23.80;8.60;;;9.50;99.90;;;;;;5051267;28;20450;-50
2021/12/13 03:44:10;;;;;;;22.43;9.00;;;9.60;99.90;;;;;;5045277;28;21075;-50
2021/12/13 03:46:38;;;;;;;23.00;7.97;;;9.60;99.90;;;;;;5051401;28;20463;-49
2021/12/13 03:49:07;;;;;;;24.73;8.93;;;9.50;99.90;;;;;;5048603;28;20563;-50
2021/12/13 03:51:36;;;;;;;24.33;9.03;;;9.50;99.90;;;;;;5050298;28;20437;-50
2021/12/13 03:54:05;;;;;;;31.83;10.77;;;9.60;99.90;;;;;;5047952;28;21248;-49
2021/12/13 03:56:35;;;;;;;33.70;11.20;;;9.60;99.90;;;;;;5044542;28;20439;-50
2021/12/13 03:59:10;;;;;;;28.60;11.10;;;9.60;99.90;;;;;;5053988;28;20434;-50
2021/12/13 04:01:46;;;;;;;33.30;10.97;;;9.70;99.90;;;;;;5050263;28;20437;-50
2021/12/13 04:04:25;;;;;;;30.77;10.40;;;9.70;99.90;;;;;;5048583;28;20438;-49
2021/12/13 04:06:55;;;;;;;30.27;11.00;;;9.70;99.90;;;;;;5046158;28;20486;-49
2021/12/13 04:09:24;;;;;;;34.70;12.03;;;9.60;99.90;;;;;;5054150;28;20432;-49
2021/12/13 04:11:53;;;;;;;31.13;10.90;;;9.70;99.90;;;;;;5056783;28;20473;-50
2021/12/13 04:14:26;;;;;;;34.10;11.33;;;9.70;99.90;;;;;;5058751;28;20531;-50
2021/12/13 04:17:44;;;;;;;35.07;11.30;;;9.70;99.90;;;;;;5057302;28;20522;-50
2021/12/13 04:20:24;;;;;;;37.60;11.17;;;9.70;99.90;;;;;;5036974;28;20502;-50
2021/12/13 04:22:54;;;;;;;41.17;12.00;;;9.70;99.90;;;;;;5032051;28;20448;-50
2021/12/13 04:25:23;;;;;;;30.33;11.40;;;9.70;99.90;;;;;;5035027;28;20458;-50
2021/12/13 04:28:12;;;;;;;32.47;11.90;;;9.70;99.90;;;;;;5030318;28;20449;-50
2021/12/13 04:30:50;;;;;;;38.17;12.70;;;9.70;99.90;;;;;;5029645;28;20547;-50
2021/12/13 04:33:35;;;;;;;44.97;13.60;;;9.80;99.90;;;;;;5038710;28;20495;-50
2021/12/13 04:36:09;;;;;;;36.43;11.33;;;9.80;99.90;;;;;;5037050;28;20482;-50
2021/12/13 04:38:48;;;;;;;36.83;12.30;;;9.70;99.90;;;;;;5035903;28;20454;-50
2021/12/13 04:41:34;;;;;;;31.57;11.30;;;9.70;99.90;;;;;;5037052;28;20506;-49
2021/12/13 04:44:15;;;;;;;33.57;10.43;;;9.70;99.90;;;;;;5034921;28;20553;-50
2021/12/13 04:46:42;;;;;;;38.60;11.53;;;9.70;99.90;;;;;;5032128;28;20540;-50
2021/12/13 04:49:12;;;;;;;27.80;10.53;;;9.80;99.90;;;;;;5033321;28;20472;-50
2021/12/13 04:51:44;;;;;;;27.67;10.37;;;9.80;99.90;;;;;;5053547;28;20454;-50
2021/12/13 04:54:14;;;;;;;31.53;10.10;;;9.80;99.90;;;;;;5054396;28;20437;-50
2021/12/13 04:56:41;;;;;;;31.20;9.50;;;9.80;99.90;;;;;;5057209;28;20448;-50
2021/12/13 04:59:10;;;;;;;26.13;8.90;;;9.80;99.90;;;;;;5050473;28;20510;-51
2021/12/13 05:01:37;;;;;;;23.23;8.20;;;9.90;99.90;;;;;;5057935;28;20468;-50
2021/12/13 05:04:05;;;;;;;23.63;9.30;;;9.90;99.90;;;;;;5053639;28;20543;-50
2021/12/13 05:06:36;;;;;;;34.40;10.47;;;9.90;99.90;;;;;;5061904;28;20446;-49
2021/12/13 05:09:06;;;;;;;32.50;11.37;;;9.90;99.90;;;;;;5052534;28;20500;-50
2021/12/13 05:11:38;;;;;;;35.33;11.67;;;9.90;99.90;;;;;;5050383;28;20432;-49
2021/12/13 05:14:06;;;;;;;31.57;10.97;;;10.00;99.90;;;;;;5059833;28;20427;-49
2021/12/13 05:16:46;;;;;;;35.37;11.70;;;9.90;99.90;;;;;;5049659;28;20890;-49
2021/12/13 05:19:15;;;;;;;32.80;10.97;;;9.90;99.90;;;;;;5048413;28;20840;-50
2021/12/13 05:21:48;;;;;;;31.03;11.20;;;10.00;99.90;;;;;;5053920;28;20506;-50
2021/12/13 05:24:23;;;;;;;25.77;10.53;;;9.90;99.90;;;;;;5047887;28;20544;-50
2021/12/13 05:26:57;;;;;;;32.80;10.60;;;9.90;99.90;;;;;;5054027;28;20449;-50
2021/12/13 05:29:34;;;;;;;31.10;10.67;;;10.00;99.90;;;;;;5048803;28;20433;-50
2021/12/13 05:32:22;;;;;;;32.80;10.67;;;9.90;99.90;;;;;;5051314;28;20463;-49
2021/12/13 05:34:52;;;;;;;34.73;11.30;;;10.00;99.90;;;;;;5051407;28;22067;-50
2021/12/13 05:37:19;;;;;;;32.73;12.00;;;10.00;99.90;;;;;;5062950;28;20512;-50
2021/12/13 05:40:01;;;;;;;38.77;12.77;;;10.00;99.90;;;;;;5054399;28;20527;-50
2021/12/13 05:42:48;;;;;;;32.43;11.97;;;10.00;99.90;;;;;;5051720;28;20441;-50
2021/12/13 05:45:29;;;;;;;35.57;12.27;;;9.90;99.90;;;;;;5052254;28;21129;-50
2021/12/13 05:48:00;;;;;;;34.27;12.07;;;9.90;99.90;;;;;;5050439;28;20494;-49
2021/12/13 05:51:01;;;;;;;33.30;11.37;;;9.90;99.90;;;;;;5051821;28;20502;-50
2021/12/13 05:53:34;;;;;;;36.30;12.00;;;9.90;99.90;;;;;;5050007;28;20465;-50
2021/12/13 05:56:16;;;;;;;32.57;11.97;;;9.90;99.90;;;;;;5048531;28;20499;-50
2021/12/13 05:58:50;;;;;;;43.93;14.17;;;9.90;99.90;;;;;;5050122;28;20448;-50
2021/12/13 06:01:29;;;;;;;35.40;13.30;;;9.90;99.90;;;;;;5052542;28;20442;-50
2021/12/13 06:04:07;;;;;;;36.87;12.90;;;9.90;99.90;;;;;;5053978;28;20467;-49
2021/12/13 06:06:41;;;;;;;32.77;11.60;;;9.80;99.90;;;;;;5051556;28;20436;-50
2021/12/13 06:09:07;;;;;;;39.20;13.27;;;9.80;99.90;;;;;;5051992;28;20458;-50
2021/12/13 06:11:33;;;;;;;35.00;14.27;;;9.90;99.90;;;;;;5052214;28;20421;-50
2021/12/13 06:14:16;;;;;;;41.90;13.07;;;9.90;99.90;;;;;;5053107;28;20519;-50
2021/12/13 06:16:54;;;;;;;36.17;13.83;;;9.90;99.90;;;;;;5048716;28;20443;-50
2021/12/13 06:19:31;;;;;;;47.50;14.60;;;9.90;99.90;;;;;;5054497;28;20457;-50
2021/12/13 06:22:04;;;;;;;33.90;13.60;;;9.90;99.90;;;;;;5053395;28;20444;-49
2021/12/13 06:24:46;;;;;;;38.00;13.37;;;9.90;99.90;;;;;;5055309;28;20526;-50
2021/12/13 06:27:29;;;;;;;39.90;13.77;;;9.90;99.90;;;;;;5053810;28;20834;-50
2021/12/13 06:30:16;;;;;;;37.60;14.10;;;9.90;99.90;;;;;;5051230;28;20455;-50
2021/12/13 06:32:57;;;;;;;45.03;15.20;;;9.90;99.90;;;;;;5046201;28;20456;-50
2021/12/13 06:35:35;;;;;;;38.73;13.70;;;9.90;99.90;;;;;;5051590;28;20921;-49
2021/12/13 06:38:30;;;;;;;32.10;13.20;;;9.90;99.90;;;;;;5049859;28;20432;-50
2021/12/13 06:41:19;;;;;;;41.00;13.60;;;9.90;99.90;;;;;;5039192;28;20433;-49
2021/12/13 06:43:56;;;;;;;34.03;14.03;;;9.90;99.90;;;;;;5047156;28;20498;-49
2021/12/13 06:46:22;;;;;;;39.80;13.23;;;9.90;99.90;;;;;;5044705;28;20449;-50
2021/12/13 06:48:59;;;;;;;35.63;13.30;;;9.90;99.90;;;;;;5050115;28;20617;-50
2021/12/13 06:51:48;;;;;;;40.47;13.70;;;9.90;99.90;;;;;;5048495;28;20190;-50
2021/12/13 06:54:30;;;;;;;46.10;14.13;;;9.90;99.90;;;;;;5050249;28;20451;-50
2021/12/13 06:57:01;;;;;;;35.20;13.90;;;9.90;99.90;;;;;;5042164;28;20437;-49
2021/12/13 06:59:28;;;;;;;35.87;13.00;;;9.90;99.90;;;;;;5049389;28;20780;-50
2021/12/13 07:02:04;;;;;;;35.73;12.63;;;9.90;99.90;;;;;;5048892;28;20533;-49
2021/12/13 07:04:46;;;;;;;34.10;12.03;;;9.80;99.90;;;;;;5049137;28;20441;-50
2021/12/13 07:07:14;;;;;;;33.80;13.03;;;9.80;99.90;;;;;;5048228;28;20448;-50
2021/12/13 07:09:48;;;;;;;24.23;9.30;;;9.80;99.90;;;;;;5051210;28;20459;-50
2021/12/13 07:12:16;;;;;;;27.23;10.10;;;9.80;99.90;;;;;;5044422;28;20472;-50
2021/12/13 07:14:42;;;;;;;24.40;9.30;;;9.80;99.90;;;;;;5047204;28;20440;-50
2021/12/13 07:17:22;;;;;;;26.77;10.00;;;9.80;99.90;;;;;;5046104;28;20437;-50
2021/12/13 07:19:51;;;;;;;18.70;8.07;;;9.80;99.90;;;;;;5047142;28;20535;-50
2021/12/13 07:22:26;;;;;;;19.13;7.80;;;9.80;99.90;;;;;;5045458;28;20455;-50
2021/12/13 07:25:02;;;;;;;15.27;7.00;;;9.80;99.90;;;;;;5051777;28;20841;-50
2021/12/13 07:27:35;;;;;;;21.03;7.90;;;9.90;99.90;;;;;;5041157;28;20449;-50
2021/12/13 07:30:29;;;;;;;18.37;7.90;;;9.90;99.90;;;;;;5048472;28;20439;-50
2021/12/13 07:33:03;;;;;;;22.23;9.57;;;10.00;99.90;;;;;;5041877;28;20595;-50
2021/12/13 07:35:34;;;;;;;25.87;10.60;;;10.00;99.90;;;;;;5049751;28;20444;-50
2021/12/13 07:38:02;;;;;;;26.17;10.70;;;10.00;99.90;;;;;;5049904;28;20437;-50
2021/12/13 07:40:37;;;;;;;24.97;10.40;;;10.00;99.90;;;;;;5053292;28;20987;-50
2021/12/13 07:43:20;;;;;;;29.37;10.73;;;10.00;99.90;;;;;;5047936;28;20854;-50
2021/12/13 07:45:49;;;;;;;26.53;10.80;;;10.00;99.90;;;;;;5052945;28;20441;-50
2021/12/13 07:48:35;;;;;;;28.20;11.90;;;10.00;99.90;;;;;;5050861;28;20832;-50
2021/12/13 07:51:15;;;;;;;23.70;10.70;;;10.00;99.90;;;;;;5051205;28;20445;-56
2021/12/13 07:53:40;;;;;;;29.13;11.43;;;10.00;99.90;;;;;;5048210;28;21061;-55
2021/12/13 07:56:06;;;;;;;31.27;12.50;;;10.00;99.90;;;;;;5053083;28;20438;-56
2021/12/13 07:58:44;;;;;;;31.50;13.10;;;10.00;99.90;;;;;;5047734;28;20540;-55
2021/12/13 08:01:18;;;;;;;34.57;12.10;;;10.10;99.90;;;;;;5048066;28;20965;-55
2021/12/13 08:03:51;;;;;;;30.17;12.83;;;10.10;99.90;;;;;;5047285;28;20523;-55
2021/12/13 08:06:17;;;;;;;30.57;12.37;;;10.00;99.90;;;;;;5049354;28;21007;-55
2021/12/13 08:08:54;;;;;;;28.20;11.90;;;10.10;99.90;;;;;;5050634;28;20450;-54
2021/12/13 08:11:36;;;;;;;28.83;12.40;;;10.10;99.90;;;;;;5050274;28;20739;-55
2021/12/13 08:14:02;;;;;;;36.77;13.57;;;10.10;99.90;;;;;;5051232;28;20497;-55
2021/12/13 08:16:37;;;;;;;35.63;12.80;;;10.10;99.90;;;;;;5051088;28;20910;-56
2021/12/13 08:19:17;;;;;;;28.53;12.73;;;10.10;99.90;;;;;;5050580;28;20166;-55
2021/12/13 08:21:46;;;;;;;28.70;12.70;;;10.10;99.90;;;;;;5043844;28;20433;-56
2021/12/13 08:24:34;;;;;;;29.90;12.53;;;10.10;99.90;;;;;;5041834;28;20973;-55
2021/12/13 08:27:10;;;;;;;28.80;12.10;;;10.10;99.90;;;;;;5050929;28;20481;-55
2021/12/13 08:29:39;;;;;;;28.07;11.90;;;10.10;99.90;;;;;;5040448;28;20433;-55
2021/12/13 08:32:18;;;;;;;34.47;12.83;;;10.20;99.90;;;;;;5051202;28;21003;-56
2021/12/13 08:34:50;;;;;;;31.30;12.87;;;10.20;99.90;;;;;;5047985;28;20762;-55
2021/12/13 08:37:18;;;;;;;33.83;13.10;;;10.20;99.90;;;;;;5046163;28;20554;-55
2021/12/13 08:39:46;;;;;;;32.00;12.77;;;10.20;99.90;;;;;;5052064;28;20434;-56
2021/12/13 08:42:17;;;;;;;31.70;13.10;;;10.20;99.90;;;;;;5052467;28;20431;-57
2021/12/13 08:44:45;;;;;;;28.87;12.10;;;10.30;99.90;;;;;;5046045;28;20448;-57
2021/12/13 08:47:20;;;;;;;28.93;12.60;;;10.20;99.90;;;;;;5049277;28;21079;-57
2021/12/13 08:49:51;;;;;;;30.40;12.17;;;10.30;99.90;;;;;;5046633;28;20445;-57
2021/12/13 08:52:22;;;;;;;25.83;11.43;;;10.30;99.90;;;;;;5047709;28;20851;-57
2021/12/13 08:54:48;;;;;;;28.00;11.80;;;10.30;99.90;;;;;;5055352;28;20436;-57
2021/12/13 08:57:32;;;;;;;29.27;12.50;;;10.30;99.90;;;;;;5051868;28;20436;-58
2021/12/13 08:59:59;;;;;;;26.93;12.37;;;10.30;99.90;;;;;;5049789;28;20229;-57
2021/12/13 09:02:36;;;;;;;26.43;13.20;;;10.40;99.90;;;;;;5050175;28;20498;-57
2021/12/13 09:05:17;;;;;;;29.70;12.30;;;10.40;99.90;;;;;;5054737;28;20471;-57
2021/12/13 09:08:12;;;;;;;27.33;13.40;;;10.40;99.90;;;;;;5051782;28;20487;-57
2021/12/13 09:11:05;;;;;;;29.60;13.43;;;10.50;99.90;;;;;;5054834;28;20450;-57
2021/12/13 09:13:54;;;;;;;27.97;12.20;;;10.40;99.90;;;;;;5050946;28;20479;-57
2021/12/13 09:16:28;;;;;;;31.60;14.90;;;10.50;99.90;;;;;;5053839;28;20969;-57
2021/12/13 09:19:28;;;;;;;31.67;14.43;;;10.50;99.90;;;;;;5051830;28;20899;-57
2021/12/13 09:22:02;;;;;;;32.40;13.20;;;10.50;99.90;;;;;;5006740;28;20444;-57
2021/12/13 09:24:48;;;;;;;32.07;14.33;;;10.50;99.90;;;;;;5052036;28;20451;-57
2021/12/13 09:27:13;;;;;;;30.70;14.00;;;10.50;99.90;;;;;;5055422;28;20442;-57
2021/12/13 09:29:52;;;;;;;33.17;13.80;;;10.50;99.90;;;;;;5051193;28;20513;-57
2021/12/13 09:32:18;;;;;;;34.73;15.87;;;10.60;99.90;;;;;;5051944;28;20295;-57
2021/12/13 09:34:45;;;;;;;40.97;16.03;;;10.50;99.90;;;;;;5054750;28;20434;-57
2021/12/13 09:37:11;;;;;;;33.07;14.87;;;10.60;99.90;;;;;;5050584;28;20428;-57
2021/12/13 09:39:37;;;;;;;31.57;14.73;;;10.60;99.90;;;;;;5052721;28;20973;-57
2021/12/13 09:42:14;;;;;;;32.70;13.90;;;10.60;99.90;;;;;;5051308;28;20445;-57
2021/12/13 09:44:48;;;;;;;30.43;14.30;;;10.70;99.90;;;;;;5044496;28;20198;-58
2021/12/13 09:47:19;;;;;;;36.03;14.33;;;10.60;99.90;;;;;;5049146;28;20446;-57
2021/12/13 09:49:56;;;;;;;37.37;15.80;;;10.60;99.90;;;;;;5048516;28;20532;-57
2021/12/13 09:52:36;;;;;;;32.30;14.07;;;10.70;99.90;;;;;;5053643;28;20551;-57
2021/12/13 09:55:11;;;;;;;36.63;15.37;;;10.70;99.90;;;;;;5050084;28;20436;-57
2021/12/13 09:57:43;;;;;;;30.63;14.60;;;10.70;99.90;;;;;;5051197;28;20444;-57
2021/12/13 10:00:38;;;;;;;35.40;14.87;;;10.80;99.90;;;;;;5045307;28;20436;-57
2021/12/13 10:03:09;;;;;;;28.93;14.20;;;10.70;99.90;;;;;;5050400;28;20487;-57
2021/12/13 10:05:39;;;;;;;29.00;14.27;;;10.80;99.90;;;;;;5052907;28;20441;-58
2021/12/13 10:08:08;;;;;;;31.13;13.87;;;10.80;99.90;;;;;;5052068;28;20456;-57
2021/12/13 10:10:50;;;;;;;31.50;13.87;;;10.80;99.90;;;;;;5051444;28;20448;-57
2021/12/13 10:13:30;;;;;;;28.07;13.70;;;10.90;99.90;;;;;;5045203;28;20468;-57
2021/12/13 10:16:12;;;;;;;30.50;12.80;;;10.90;99.90;;;;;;5052591;28;20432;-58
2021/12/13 10:18:42;;;;;;;30.10;14.53;;;10.90;99.90;;;;;;5046495;28;20438;-58
2021/12/13 10:21:19;;;;;;;32.93;13.83;;;10.90;99.90;;;;;;5045903;28;20864;-58
2021/12/13 10:23:49;;;;;;;27.93;12.80;;;10.90;99.90;;;;;;5053103;28;20429;-59
2021/12/13 10:26:16;;;;;;;23.17;11.97;;;10.90;99.90;;;;;;5050259;28;20444;-57
2021/12/13 10:28:52;;;;;;;28.30;12.43;;;10.90;99.90;;;;;;5047557;28;20507;-57
2021/12/13 10:31:41;;;;;;;25.60;11.70;;;11.00;99.90;;;;;;5051721;28;20903;-57
2021/12/13 10:34:11;;;;;;;27.10;12.63;;;11.00;99.90;;;;;;5036798;28;20444;-57
2021/12/13 10:36:40;;;;;;;23.93;12.47;;;11.10;99.90;;;;;;5051589;28;20515;-57
2021/12/13 10:39:15;;;;;;;22.50;10.70;;;11.20;99.90;;;;;;5051162;28;20975;-56
2021/12/13 10:41:45;;;;;;;25.37;10.27;;;11.20;99.90;;;;;;5048976;28;20436;-58
2021/12/13 10:44:15;;;;;;;18.57;10.47;;;11.20;99.90;;;;;;5043751;28;20833;-58
2021/12/13 10:46:45;;;;;;;18.83;10.00;;;11.20;99.90;;;;;;5050170;28;20829;-58
2021/12/13 10:49:16;;;;;;;23.47;11.40;;;11.20;99.90;;;;;;5048781;28;20477;-58
2021/12/13 10:51:44;;;;;;;17.17;9.77;;;11.20;99.90;;;;;;5042642;28;20447;-57
2021/12/13 10:54:19;;;;;;;22.00;10.60;;;11.10;99.90;;;;;;5048647;28;20437;-57
2021/12/13 10:56:48;;;;;;;16.53;9.43;;;11.10;99.90;;;;;;5048148;28;20432;-58
2021/12/13 10:59:18;;;;;;;15.23;8.97;;;11.10;99.90;;;;;;5051212;28;20413;-58
2021/12/13 11:01:47;;;;;;;19.73;9.43;;;11.10;99.90;;;;;;5049975;28;20432;-58
2021/12/13 11:04:17;;;;;;;17.90;9.20;;;11.20;99.90;;;;;;5044802;28;20425;-58
2021/12/13 11:06:46;;;;;;;17.70;8.93;;;11.20;99.90;;;;;;5049888;28;20439;-58
2021/12/13 11:09:19;;;;;;;15.13;8.80;;;11.20;99.90;;;;;;5043273;28;20428;-57
2021/12/13 11:11:49;;;;;;;16.30;8.37;;;11.20;99.90;;;;;;5047766;28;20440;-58
2021/12/13 11:14:20;;;;;;;12.90;7.50;;;11.20;99.90;;;;;;5048815;28;20429;-57
2021/12/13 11:16:50;;;;;;;11.80;7.97;;;11.20;99.90;;;;;;5048387;28;20466;-57
2021/12/13 11:19:19;;;;;;;12.70;8.07;;;11.30;99.90;;;;;;5047909;28;20436;-57
2021/12/13 11:21:48;;;;;;;14.80;7.40;;;11.30;99.90;;;;;;5048022;28;20475;-57
2021/12/13 11:24:19;;;;;;;14.73;7.60;;;11.30;99.90;;;;;;5049893;28;20468;-58
2021/12/13 11:26:47;;;;;;;9.93;7.60;;;11.20;99.90;;;;;;5046077;28;20429;-57
2021/12/13 11:29:15;;;;;;;12.90;7.97;;;11.10;99.90;;;;;;5050789;28;20990;-57
2021/12/13 11:31:52;;;;;;;11.37;6.70;;;11.00;99.90;;;;;;5049148;28;20440;-58
2021/12/13 11:34:47;;;;;;;13.77;9.00;;;11.00;99.90;;;;;;5041239;28;20912;-57
2021/12/13 11:38:04;;;;;;;15.20;8.80;;;11.00;99.90;;;;;;5048406;28;20458;-58
2021/12/13 11:41:10;;;;;;;16.20;10.07;;;10.90;99.90;;;;;;4984070;28;20435;-57
2021/12/13 11:43:55;;;;;;;18.80;11.53;;;10.90;99.90;;;;;;5003824;28;20533;-57
2021/12/13 11:46:27;;;;;;;21.33;12.60;;;10.80;99.90;;;;;;5049400;28;20461;-57
2021/12/13 11:49:31;;;;;;;22.97;11.40;;;10.70;99.90;;;;;;5046764;28;20888;-57
2021/12/13 11:52:21;;;;;;;18.53;11.50;;;10.70;99.90;;;;;;5051633;28;20525;-56
2021/12/13 11:55:21;;;;;;;19.67;11.63;;;10.60;99.90;;;;;;5048670;28;20436;-58
2021/12/13 11:58:16;;;;;;;23.53;13.43;;;10.60;99.90;;;;;;5051396;28;20479;-58
2021/12/13 12:01:21;;;;;;;25.40;12.40;;;10.70;99.90;;;;;;5050660;28;20430;-58
2021/12/13 12:04:44;;;;;;;24.53;12.90;;;10.60;99.90;;;;;;5053844;28;20520;-58
2021/12/13 12:07:12;;;;;;;25.27;12.93;;;10.50;99.90;;;;;;5046594;28;21601;-57
2021/12/13 12:10:12;;;;;;;32.73;13.73;;;10.60;99.90;;;;;;5046172;28;20481;-58
2021/12/13 12:13:21;;;;;;;31.00;14.57;;;10.60;99.90;;;;;;5047409;28;20472;-57
2021/12/13 12:15:47;;;;;;;24.57;13.00;;;10.60;99.90;;;;;;5021715;28;20854;-58
2021/12/13 12:18:19;;;;;;;29.97;14.20;;;10.60;99.90;;;;;;5050483;28;20471;-58
2021/12/13 12:20:50;;;;;;;29.07;15.00;;;10.60;99.90;;;;;;5044669;28;20530;-62
2021/12/13 12:23:30;;;;;;;27.20;14.70;;;10.50;99.90;;;;;;5049936;28;20476;-61
2021/12/13 12:25:57;;;;;;;31.63;14.50;;;10.50;99.90;;;;;;5047440;28;20436;-57
2021/12/13 12:28:25;;;;;;;27.23;14.50;;;10.60;99.90;;;;;;5053165;28;20443;-60
2021/12/13 12:30:55;;;;;;;29.57;15.20;;;10.50;99.90;;;;;;5055162;28;20462;-57
2021/12/13 12:33:30;;;;;;;26.83;14.63;;;10.50;99.90;;;;;;5056989;28;20910;-58
2021/12/13 12:35:58;;;;;;;27.77;14.60;;;10.50;99.90;;;;;;5050600;28;20441;-56
2021/12/13 12:38:42;;;;;;;28.40;14.70;;;10.50;99.90;;;;;;5050766;28;20941;-57
2021/12/13 12:41:13;;;;;;;27.47;14.67;;;10.50;99.90;;;;;;5054374;28;20458;-58
2021/12/13 12:43:50;;;;;;;25.87;14.20;;;10.50;99.90;;;;;;5047561;28;20896;-57
2021/12/13 12:46:16;;;;;;;24.63;14.10;;;10.50;99.90;;;;;;5050347;28;20451;-58
2021/12/13 12:48:44;;;;;;;27.47;14.30;;;10.40;99.90;;;;;;5056781;28;20475;-57
2021/12/13 12:51:19;;;;;;;29.73;13.63;;;10.50;99.90;;;;;;5053578;28;21167;-58
2021/12/13 12:53:51;;;;;;;26.10;13.83;;;10.50;99.90;;;;;;5048428;28;20833;-58
2021/12/13 12:56:22;;;;;;;24.77;13.97;;;10.40;99.90;;;;;;5055150;28;20448;-58
2021/12/13 12:58:54;;;;;;;27.00;14.67;;;10.40;99.90;;;;;;5050190;28;20444;-58
2021/12/13 13:01:41;;;;;;;26.17;14.17;;;10.40;99.90;;;;;;5053484;28;20826;-57
2021/12/13 13:04:23;;;;;;;27.07;14.43;;;10.40;99.90;;;;;;5052195;28;21173;-57
2021/12/13 13:06:55;;;;;;;26.73;13.40;;;10.40;99.90;;;;;;5052063;28;20452;-57
2021/12/13 13:09:22;;;;;;;27.77;13.83;;;10.40;99.90;;;;;;5050933;28;20502;-57
2021/12/13 13:11:51;;;;;;;27.90;14.40;;;10.40;99.90;;;;;;5051288;28;20917;-56
2021/12/13 13:14:30;;;;;;;21.47;12.67;;;10.40;99.90;;;;;;5050141;28;20989;-57
2021/12/13 13:17:00;;;;;;;28.27;13.90;;;10.40;99.90;;;;;;5051623;28;22304;-57